Stolt Effort — ZCSP6 — position and weather

sailwx.info

Track history (hours):
 
Tides and Currents Weather Stations Pressure Air Temp Water Temp Dewpoint Dewpoint Depression Visibility Wind Speed Wind Dir Waves Ship Positions

Stolt Effort

Last reported at 2014-Jul-10 18:33 UTC. Time now 2014-Jul-23 18:04 UTC.
Position N 01°09' E 103°42'.
Warning: this ship's position is 12 days out of date.

Length 176 m; draft 6.8 m.

Type: Ship (hazmat cat B). MMSI: 319445000.

Date/timePositionNaut miles runAvg speedWind from/ knotsBaromVisibWave heightAir tempDewpointWater temp
2014-Jul-10 18:33N 01°09' E 103°42'11 8.3
2014-Jul-10 17:15N 01°13' E 103°52'5 0.1
2014-Jul-09 07:28N 01°13' E 103°57'13 0.3
2014-Jul-07 06:30N 01°18' E 103°44'3 3.4
2014-Jul-07 05:32N 01°15' E 103°42'0 0.0
2014-Jul-07 04:26N 01°15' E 103°42'0 0.0
2014-Jul-07 03:29N 01°15' E 103°42'0 0.0
2014-Jul-07 02:29N 01°15' E 103°42'0 0.0
2014-Jul-07 01:32N 01°15' E 103°42'0 0.0
2014-Jul-07 00:26N 01°15' E 103°42'0 0.0
2014-Jul-06 23:29N 01°15' E 103°42'0 0.0
2014-Jul-06 22:32N 01°15' E 103°42'0 0.0
2014-Jul-06 21:29N 01°15' E 103°42'0 0.0
2014-Jul-06 20:32N 01°15' E 103°42'0 0.0
2014-Jul-06 19:32N 01°15' E 103°42'0 0.0
2014-Jul-06 18:32N 01°15' E 103°42'0 0.0
2014-Jul-06 17:26N 01°15' E 103°42'0 0.0
2014-Jul-06 16:32N 01°15' E 103°42'0 0.0
2014-Jul-06 15:29N 01°15' E 103°42'0 0.0
2014-Jul-06 14:32N 01°15' E 103°42'0 0.0
2014-Jul-06 13:29N 01°15' E 103°42'0 0.0
2014-Jul-06 12:26N 01°15' E 103°42'0 0.0
2014-Jul-06 11:32N 01°15' E 103°42'0 0.0
2014-Jul-06 10:29N 01°15' E 103°42'0 0.0
2014-Jul-06 09:29N 01°15' E 103°42'0 0.0
2014-Jul-06 08:32N 01°15' E 103°42'0 0.0
2014-Jul-06 07:29N 01°15' E 103°42'0 0.0
2014-Jul-06 06:32N 01°15' E 103°42'0 0.0
2014-Jul-06 05:32N 01°15' E 103°42'0 0.0
2014-Jul-06 04:32N 01°15' E 103°42'0 0.0
2014-Jul-06 03:29N 01°15' E 103°42'0 0.0
2014-Jul-06 02:32N 01°15' E 103°42'0 0.0
2014-Jul-06 01:32N 01°15' E 103°42'0 0.0
2014-Jul-06 00:23N 01°15' E 103°42'0 0.0
2014-Jul-05 23:32N 01°15' E 103°42'0 0.0
2014-Jul-05 22:32N 01°15' E 103°42'0 0.0
2014-Jul-05 21:32N 01°15' E 103°42'0 0.0
2014-Jul-05 20:32N 01°15' E 103°42'0 0.0
2014-Jul-05 19:26N 01°15' E 103°42'0 0.0
2014-Jul-05 18:32N 01°15' E 103°42'0 0.0
2014-Jul-05 17:29N 01°15' E 103°42'0 0.0
2014-Jul-05 16:32N 01°15' E 103°42'0 0.0
2014-Jul-05 15:33N 01°15' E 103°42'1 0.5
2014-Jul-05 14:33N 01°15' E 103°42'4 3.5
2014-Jul-05 13:33N 01°13' E 103°39'0 0.1
2014-Jul-05 12:33N 01°13' E 103°39'0 0.4
2014-Jul-05 11:33N 01°13' E 103°39'5 4.7
2014-Jul-05 10:33N 01°09' E 103°42'1211.9
2014-Jul-05 09:34N 01°13' E 103°53'  
2014-Jul-01 08:33N 22°01' E 113°51'1313.0
2014-Jul-01 07:33N 22°13' E 113°48'1414.5
2014-Jul-01 06:33N 22°27' E 113°45'1513.3
2014-Jul-01 05:26N 22°42' E 113°41'910.7
2014-Jul-01 04:33N 22°49' E 113°35'1 1.2
2014-Jul-01 03:24N 22°50' E 113°34'0 0.0
2014-Jul-01 02:30N 22°50' E 113°34'0 0.0
2014-Jul-01 00:24N 22°50' E 113°34'0 0.0
2014-Jun-30 21:24N 22°50' E 113°34'0 0.0
2014-Jun-30 20:18N 22°50' E 113°34'0 0.0
2014-Jun-30 19:30N 22°50' E 113°34'  
Track history (hours):
 
Tides and Currents Weather Stations Pressure Air Temp Water Temp Dewpoint Dewpoint Depression Visibility Wind Speed Wind Dir Waves Ship Positions

Stolt Effort

Last reported at 2014-Jul-10 18:33 UTC. Time now 2014-Jul-23 18:04 UTC.
Position N 01°09' E 103°42'.
Warning: this ship's position is 12 days out of date.

Length 176 m; draft 6.8 m.

Type: Ship (hazmat cat B). MMSI: 319445000.

Date/timePositionNaut miles runAvg speedWind from/ knotsBaromVisibWave heightAir tempDewpointWater temp
2014-Jul-10 18:33N 01°09' E 103°42'11 8.3
2014-Jul-10 17:15N 01°13' E 103°52'5 0.1
2014-Jul-09 07:28N 01°13' E 103°57'13 0.3
2014-Jul-07 06:30N 01°18' E 103°44'3 3.4
2014-Jul-07 05:32N 01°15' E 103°42'0 0.0
2014-Jul-07 04:26N 01°15' E 103°42'0 0.0
2014-Jul-07 03:29N 01°15' E 103°42'0 0.0
2014-Jul-07 02:29N 01°15' E 103°42'0 0.0
2014-Jul-07 01:32N 01°15' E 103°42'0 0.0
2014-Jul-07 00:26N 01°15' E 103°42'0 0.0
2014-Jul-06 23:29N 01°15' E 103°42'0 0.0
2014-Jul-06 22:32N 01°15' E 103°42'0 0.0
2014-Jul-06 21:29N 01°15' E 103°42'0 0.0
2014-Jul-06 20:32N 01°15' E 103°42'0 0.0
2014-Jul-06 19:32N 01°15' E 103°42'0 0.0
2014-Jul-06 18:32N 01°15' E 103°42'0 0.0
2014-Jul-06 17:26N 01°15' E 103°42'0 0.0
2014-Jul-06 16:32N 01°15' E 103°42'0 0.0
2014-Jul-06 15:29N 01°15' E 103°42'0 0.0
2014-Jul-06 14:32N 01°15' E 103°42'0 0.0
2014-Jul-06 13:29N 01°15' E 103°42'0 0.0
2014-Jul-06 12:26N 01°15' E 103°42'0 0.0
2014-Jul-06 11:32N 01°15' E 103°42'0 0.0
2014-Jul-06 10:29N 01°15' E 103°42'0 0.0
2014-Jul-06 09:29N 01°15' E 103°42'0 0.0
2014-Jul-06 08:32N 01°15' E 103°42'0 0.0
2014-Jul-06 07:29N 01°15' E 103°42'0 0.0
2014-Jul-06 06:32N 01°15' E 103°42'0 0.0
2014-Jul-06 05:32N 01°15' E 103°42'0 0.0
2014-Jul-06 04:32N 01°15' E 103°42'0 0.0
2014-Jul-06 03:29N 01°15' E 103°42'0 0.0
2014-Jul-06 02:32N 01°15' E 103°42'0 0.0
2014-Jul-06 01:32N 01°15' E 103°42'0 0.0
2014-Jul-06 00:23N 01°15' E 103°42'0 0.0
2014-Jul-05 23:32N 01°15' E 103°42'0 0.0
2014-Jul-05 22:32N 01°15' E 103°42'0 0.0
2014-Jul-05 21:32N 01°15' E 103°42'0 0.0
2014-Jul-05 20:32N 01°15' E 103°42'0 0.0
2014-Jul-05 19:26N 01°15' E 103°42'0 0.0
2014-Jul-05 18:32N 01°15' E 103°42'0 0.0
2014-Jul-05 17:29N 01°15' E 103°42'0 0.0
2014-Jul-05 16:32N 01°15' E 103°42'0 0.0
2014-Jul-05 15:33N 01°15' E 103°42'1 0.5
2014-Jul-05 14:33N 01°15' E 103°42'4 3.5
2014-Jul-05 13:33N 01°13' E 103°39'0 0.1
2014-Jul-05 12:33N 01°13' E 103°39'0 0.4
2014-Jul-05 11:33N 01°13' E 103°39'5 4.7
2014-Jul-05 10:33N 01°09' E 103°42'1211.9
2014-Jul-05 09:34N 01°13' E 103°53'  
2014-Jul-01 08:33N 22°01' E 113°51'1313.0
2014-Jul-01 07:33N 22°13' E 113°48'1414.5
2014-Jul-01 06:33N 22°27' E 113°45'1513.3
2014-Jul-01 05:26N 22°42' E 113°41'910.7
2014-Jul-01 04:33N 22°49' E 113°35'1 1.2
2014-Jul-01 03:24N 22°50' E 113°34'0 0.0
2014-Jul-01 02:30N 22°50' E 113°34'0 0.0
2014-Jul-01 00:24N 22°50' E 113°34'0 0.0
2014-Jun-30 21:24N 22°50' E 113°34'0 0.0
2014-Jun-30 20:18N 22°50' E 113°34'0 0.0
2014-Jun-30 19:30N 22°50' E 113°34'  

Dump ship's entire track history